createdAt,value
2022-10-26T00:01:22.049Z,8.70
2022-10-26T00:03:48.946Z,8.80
2022-10-26T00:06:20.094Z,8.70
2022-10-26T00:08:47.900Z,8.70
2022-10-26T00:11:15.276Z,8.70
2022-10-26T00:13:42.581Z,8.70
2022-10-26T00:16:11.971Z,8.70
2022-10-26T00:18:39.335Z,8.70
2022-10-26T00:21:07.885Z,8.80
2022-10-26T00:23:34.790Z,8.80
2022-10-26T00:26:01.790Z,8.90
2022-10-26T00:28:28.916Z,8.80
2022-10-26T00:30:59.937Z,8.90
2022-10-26T00:33:27.705Z,8.90
2022-10-26T00:35:54.580Z,8.90
2022-10-26T00:38:21.718Z,8.90
2022-10-26T00:40:48.968Z,9.00
2022-10-26T00:43:21.525Z,9.00
2022-10-26T00:45:51.179Z,9.00
2022-10-26T00:48:30.250Z,9.10
2022-10-26T00:51:00.115Z,9.10
2022-10-26T00:53:27.365Z,9.00
2022-10-26T00:55:55.079Z,9.00
2022-10-26T00:58:22.906Z,9.00
2022-10-26T01:00:51.265Z,9.00
2022-10-26T01:03:18.590Z,9.10
2022-10-26T01:05:47.764Z,9.20
2022-10-26T01:08:17.308Z,9.20
2022-10-26T01:10:44.394Z,9.30
2022-10-26T01:13:12.712Z,9.20
2022-10-26T01:16:01.102Z,9.20
2022-10-26T01:18:39.774Z,9.20
2022-10-26T01:21:20.182Z,9.20
2022-10-26T01:24:07.304Z,9.30
2022-10-26T01:29:45.718Z,9.30
2022-10-26T01:32:18.602Z,9.30
2022-10-26T01:34:51.718Z,9.20
2022-10-26T01:37:24.867Z,9.30
2022-10-26T01:40:21.475Z,9.30
2022-10-26T01:42:51.453Z,9.30
2022-10-26T01:45:19.143Z,9.20
2022-10-26T01:47:48.664Z,9.30
2022-10-26T01:50:17.617Z,9.30
2022-10-26T01:52:44.407Z,9.30
2022-10-26T01:55:39.118Z,9.30
2022-10-26T01:58:23.802Z,9.30
2022-10-26T02:01:00.648Z,9.30
2022-10-26T02:03:47.745Z,9.30
2022-10-26T02:06:19.353Z,9.30
2022-10-26T02:09:06.050Z,9.40
2022-10-26T02:11:43.554Z,9.50
2022-10-26T02:14:22.829Z,9.40
2022-10-26T02:16:53.999Z,9.50
2022-10-26T02:19:40.569Z,9.40
2022-10-26T02:22:20.542Z,9.50
2022-10-26T02:24:51.296Z,9.40
2022-10-26T02:27:23.004Z,9.50
2022-10-26T02:29:52.153Z,9.60
2022-10-26T02:32:20.510Z,9.60
2022-10-26T02:34:49.869Z,9.70
2022-10-26T02:37:20.233Z,9.70
2022-10-26T02:39:49.675Z,9.70
2022-10-26T02:42:18.601Z,9.70
2022-10-26T02:44:50.521Z,9.70
2022-10-26T02:47:19.457Z,9.70
2022-10-26T02:49:46.498Z,9.70
2022-10-26T02:52:33.474Z,9.80
2022-10-26T02:55:05.816Z,9.90
2022-10-26T02:57:41.958Z,9.80
2022-10-26T03:00:11.883Z,9.80
2022-10-26T03:02:38.826Z,9.90
2022-10-26T03:05:25.868Z,9.90
2022-10-26T03:07:53.448Z,10.00
2022-10-26T03:10:21.175Z,10.00
2022-10-26T03:12:48.534Z,9.90
2022-10-26T03:15:15.814Z,10.00
2022-10-26T03:17:42.631Z,10.00
2022-10-26T03:20:10.127Z,10.00
2022-10-26T03:22:37.141Z,10.00
2022-10-26T03:25:04.555Z,9.90
2022-10-26T03:27:31.582Z,10.00
2022-10-26T03:29:58.416Z,10.00
2022-10-26T03:32:25.221Z,10.00
2022-10-26T03:34:52.112Z,10.00
2022-10-26T03:37:19.088Z,10.00
2022-10-26T03:39:45.928Z,10.00
2022-10-26T03:42:12.774Z,10.00
2022-10-26T03:44:39.598Z,10.10
2022-10-26T03:47:06.449Z,10.00
2022-10-26T03:49:33.260Z,10.10
2022-10-26T03:52:00.133Z,10.10
2022-10-26T03:54:27.014Z,10.10
2022-10-26T03:56:55.244Z,10.10
2022-10-26T03:59:22.442Z,10.20
2022-10-26T04:01:52.760Z,10.20
2022-10-26T04:04:22.516Z,10.20
2022-10-26T04:06:49.413Z,10.20
2022-10-26T04:09:16.249Z,10.10
2022-10-26T04:11:43.095Z,10.20
2022-10-26T04:14:09.889Z,10.20
2022-10-26T04:16:36.679Z,10.20
2022-10-26T04:19:03.466Z,10.20
2022-10-26T04:21:32.894Z,10.20
2022-10-26T04:23:59.764Z,10.10
2022-10-26T04:26:26.553Z,10.10
2022-10-26T04:28:53.724Z,10.10
2022-10-26T04:31:20.579Z,10.10
2022-10-26T04:33:47.400Z,10.10
2022-10-26T04:36:14.220Z,10.10
2022-10-26T04:38:41.076Z,10.10
2022-10-26T04:41:07.877Z,10.10
2022-10-26T04:43:34.673Z,10.10
2022-10-26T04:46:01.436Z,10.00
2022-10-26T04:48:28.307Z,10.10
2022-10-26T04:50:58.219Z,10.10
2022-10-26T04:53:25.052Z,10.00
2022-10-26T04:56:00.509Z,10.00
2022-10-26T04:58:28.797Z,10.00
2022-10-26T05:00:55.873Z,10.00
2022-10-26T05:03:23.101Z,10.00
2022-10-26T05:05:49.910Z,10.00
2022-10-26T05:08:16.935Z,10.00
2022-10-26T05:10:47.879Z,10.00
2022-10-26T05:13:14.761Z,10.00
2022-10-26T05:15:41.564Z,10.00
2022-10-26T05:18:09.349Z,10.10
2022-10-26T05:20:37.424Z,10.10
2022-10-26T05:23:07.190Z,10.10
2022-10-26T05:25:36.752Z,10.10
2022-10-26T05:28:06.215Z,10.10
2022-10-26T05:30:33.043Z,10.20
2022-10-26T05:33:03.345Z,10.20
2022-10-26T05:35:30.666Z,10.20
2022-10-26T05:37:57.649Z,10.20
2022-10-26T05:40:24.726Z,10.20
2022-10-26T05:42:52.116Z,10.20
2022-10-26T05:45:19.286Z,10.30
2022-10-26T05:47:46.922Z,10.30
2022-10-26T05:50:14.540Z,10.40
2022-10-26T05:52:42.485Z,10.40
2022-10-26T05:55:10.473Z,10.40
2022-10-26T05:57:38.201Z,10.50
2022-10-26T06:00:11.320Z,10.50
2022-10-26T06:02:43.931Z,10.40
2022-10-26T06:05:11.570Z,10.40
2022-10-26T06:07:38.533Z,10.40
2022-10-26T06:10:05.863Z,10.40
2022-10-26T06:12:32.974Z,10.50
2022-10-26T06:15:00.038Z,10.50
2022-10-26T06:17:44.738Z,10.50
2022-10-26T06:20:23.141Z,10.60
2022-10-26T06:23:13.857Z,10.60
2022-10-26T06:26:06.851Z,10.70
2022-10-26T06:28:50.066Z,10.70
2022-10-26T06:31:17.950Z,10.70
2022-10-26T06:33:45.014Z,10.80
2022-10-26T06:36:23.298Z,10.90
2022-10-26T06:39:04.276Z,10.90
2022-10-26T06:41:33.745Z,10.90
2022-10-26T06:44:02.434Z,10.90
2022-10-26T06:46:29.155Z,10.90
2022-10-26T06:49:21.040Z,10.90
2022-10-26T06:51:58.258Z,10.90
2022-10-26T06:54:47.211Z,11.00
2022-10-26T06:57:16.251Z,11.00
2022-10-26T07:00:00.733Z,11.00
2022-10-26T07:02:27.877Z,11.00
2022-10-26T07:04:54.979Z,11.10
2022-10-26T07:07:24.834Z,11.20
2022-10-26T07:09:51.835Z,11.40
2022-10-26T07:12:18.685Z,11.50
2022-10-26T07:14:45.537Z,11.60
2022-10-26T07:17:12.372Z,11.60
2022-10-26T07:19:40.608Z,11.70
2022-10-26T07:22:07.441Z,11.90
2022-10-26T07:24:34.273Z,12.00
2022-10-26T07:27:01.123Z,12.20
2022-10-26T07:29:28.084Z,12.30
2022-10-26T07:31:54.920Z,12.40
2022-10-26T07:34:21.752Z,12.40
2022-10-26T07:36:48.583Z,12.40
2022-10-26T07:39:15.356Z,12.40
2022-10-26T07:41:42.175Z,12.50
2022-10-26T07:44:08.984Z,12.50
2022-10-26T07:46:35.894Z,12.60
2022-10-26T07:49:02.717Z,12.70
2022-10-26T07:51:29.594Z,12.90
2022-10-26T07:53:56.389Z,13.00
2022-10-26T07:56:23.426Z,13.20
2022-10-26T07:58:55.724Z,13.50
2022-10-26T08:01:25.246Z,13.70
2022-10-26T08:03:53.949Z,13.80
2022-10-26T08:06:22.020Z,13.80
2022-10-26T08:08:49.072Z,13.80
2022-10-26T08:11:16.481Z,13.80
2022-10-26T08:13:43.386Z,13.60
2022-10-26T08:16:10.409Z,13.50
2022-10-26T08:18:37.360Z,13.50
2022-10-26T08:21:11.225Z,13.50
2022-10-26T08:23:38.893Z,13.40
2022-10-26T08:26:05.891Z,13.40
2022-10-26T08:28:33.017Z,13.50
2022-10-26T08:31:00.012Z,13.60
2022-10-26T08:33:26.871Z,13.90
2022-10-26T08:36:01.826Z,14.20
2022-10-26T08:38:29.146Z,14.50
2022-10-26T08:40:57.854Z,14.70
2022-10-26T08:43:30.065Z,15.20
2022-10-26T08:46:09.502Z,15.50
2022-10-26T08:49:07.512Z,15.70
2022-10-26T08:51:38.139Z,15.70
2022-10-26T08:54:38.109Z,15.70
2022-10-26T08:57:19.782Z,15.50
2022-10-26T09:00:02.975Z,15.50
2022-10-26T09:02:30.067Z,15.50
2022-10-26T09:04:59.542Z,15.60
2022-10-26T09:07:34.683Z,15.60
2022-10-26T09:10:04.560Z,16.00
2022-10-26T09:13:03.389Z,16.40
2022-10-26T09:15:49.116Z,16.50
2022-10-26T09:18:38.415Z,17.30
2022-10-26T09:21:20.339Z,18.00
2022-10-26T09:24:14.721Z,18.50
2022-10-26T09:27:08.095Z,19.30
2022-10-26T09:29:40.867Z,19.90
2022-10-26T09:32:17.436Z,20.70
2022-10-26T09:35:11.928Z,20.20
2022-10-26T09:37:47.266Z,19.60
2022-10-26T09:40:27.144Z,18.70
2022-10-26T09:43:07.079Z,18.20
2022-10-26T09:45:38.784Z,18.00
2022-10-26T09:48:14.768Z,17.80
2022-10-26T09:50:46.904Z,17.80
2022-10-26T09:53:13.694Z,19.00
2022-10-26T09:55:47.432Z,20.90
2022-10-26T09:58:30.619Z,21.40
2022-10-26T10:00:57.860Z,20.00
2022-10-26T10:03:30.129Z,19.20
2022-10-26T10:06:17.069Z,18.50
2022-10-26T10:08:46.553Z,18.60
2022-10-26T10:11:15.116Z,18.20
2022-10-26T10:13:46.587Z,18.00
2022-10-26T10:16:23.482Z,17.90
2022-10-26T10:19:00.860Z,17.60
2022-10-26T10:21:39.529Z,17.30
2022-10-26T10:25:00.375Z,17.40
2022-10-26T10:27:28.803Z,17.40
2022-10-26T10:30:00.001Z,18.10
2022-10-26T10:32:35.437Z,18.90
2022-10-26T10:35:29.437Z,19.60
2022-10-26T10:37:56.579Z,21.40
2022-10-26T10:40:30.725Z,21.50
2022-10-26T10:43:24.221Z,21.20
2022-10-26T10:45:57.186Z,20.70
2022-10-26T10:48:28.598Z,20.50
2022-10-26T10:50:58.198Z,20.20
2022-10-26T10:53:35.131Z,19.80
2022-10-26T10:56:19.288Z,19.80
2022-10-26T10:59:07.882Z,20.20
2022-10-26T11:01:44.421Z,20.20
2022-10-26T11:04:17.146Z,20.60
2022-10-26T11:06:45.400Z,20.80
2022-10-26T11:09:16.794Z,20.60
2022-10-26T11:11:59.026Z,20.60
2022-10-26T11:14:39.785Z,20.50
2022-10-26T11:17:28.987Z,20.40
2022-10-26T11:20:14.885Z,19.90
2022-10-26T11:22:59.696Z,20.00
2022-10-26T11:25:39.146Z,19.70
2022-10-26T11:28:41.193Z,19.60
2022-10-26T11:31:13.582Z,19.40
2022-10-26T11:34:12.463Z,19.00
2022-10-26T11:36:43.152Z,19.20
2022-10-26T11:39:24.988Z,19.30
2022-10-26T11:42:00.619Z,19.50
2022-10-26T11:44:50.453Z,19.40
2022-10-26T11:47:44.437Z,19.20
2022-10-26T11:50:25.681Z,19.30
2022-10-26T11:53:01.007Z,19.20
2022-10-26T11:55:28.839Z,19.10
2022-10-26T11:57:55.689Z,19.00
2022-10-26T12:00:23.660Z,19.00
2022-10-26T12:03:01.145Z,19.10
2022-10-26T12:05:46.019Z,19.10
2022-10-26T12:08:27.764Z,19.00
2022-10-26T12:11:32.573Z,18.90
2022-10-26T12:14:18.133Z,18.80
2022-10-26T12:16:52.482Z,18.90
2022-10-26T12:19:33.658Z,19.00
2022-10-26T12:22:00.964Z,18.90
2022-10-26T12:24:33.533Z,18.90
2022-10-26T12:27:05.339Z,18.70
2022-10-26T12:29:36.995Z,18.80
2022-10-26T12:32:25.076Z,18.90
2022-10-26T12:34:51.843Z,18.90
2022-10-26T12:37:37.509Z,18.90
2022-10-26T12:40:42.929Z,18.90
2022-10-26T12:43:15.971Z,18.70
2022-10-26T12:45:46.864Z,18.70
2022-10-26T12:48:38.544Z,18.80
2022-10-26T12:51:27.380Z,18.90
2022-10-26T12:54:16.244Z,18.90
2022-10-26T12:57:02.679Z,19.00
2022-10-26T12:59:51.827Z,19.10
2022-10-26T13:02:37.555Z,18.90
2022-10-26T13:05:49.469Z,18.80
2022-10-26T13:08:17.159Z,18.80
2022-10-26T13:11:04.548Z,18.90
2022-10-26T13:13:34.125Z,19.00
2022-10-26T13:16:02.473Z,18.90
2022-10-26T13:18:30.020Z,18.90
2022-10-26T13:21:13.478Z,18.80
2022-10-26T13:23:42.453Z,18.60
2022-10-26T13:26:18.371Z,18.50
2022-10-26T13:28:58.259Z,18.50
2022-10-26T13:31:34.494Z,18.40
2022-10-26T13:34:01.377Z,18.40
2022-10-26T13:36:32.701Z,18.40
2022-10-26T13:39:04.798Z,18.40
2022-10-26T13:41:39.001Z,18.40
2022-10-26T13:44:22.432Z,18.40
2022-10-26T13:47:01.183Z,18.40
2022-10-26T13:49:39.255Z,18.60
2022-10-26T13:52:13.679Z,18.70
2022-10-26T13:54:48.188Z,18.80
2022-10-26T13:57:22.989Z,19.20
2022-10-26T13:59:51.379Z,19.20
2022-10-26T14:02:25.372Z,19.50
2022-10-26T14:04:59.317Z,19.50
2022-10-26T14:07:40.143Z,19.40
2022-10-26T14:10:07.175Z,19.30
2022-10-26T14:12:34.388Z,19.30
2022-10-26T14:15:08.312Z,19.30
2022-10-26T14:17:35.206Z,19.20
2022-10-26T14:20:04.744Z,18.90
2022-10-26T14:22:31.634Z,18.80
2022-10-26T14:25:00.534Z,18.90
2022-10-26T14:27:39.750Z,19.80
2022-10-26T14:30:25.356Z,19.50
2022-10-26T14:32:53.146Z,19.00
2022-10-26T14:35:28.572Z,18.60
2022-10-26T14:38:03.871Z,18.40
2022-10-26T14:40:35.161Z,18.20
2022-10-26T14:43:04.898Z,18.10
2022-10-26T14:45:54.908Z,18.00
2022-10-26T14:48:32.280Z,17.90
2022-10-26T14:51:17.259Z,17.90
2022-10-26T14:53:53.126Z,17.80
2022-10-26T14:56:28.871Z,17.70
2022-10-26T14:58:56.866Z,17.70
2022-10-26T15:01:23.840Z,17.60
2022-10-26T15:03:58.635Z,17.50
2022-10-26T15:06:29.937Z,17.50
2022-10-26T15:08:59.482Z,17.40
2022-10-26T15:11:28.488Z,17.40
2022-10-26T15:13:56.514Z,17.30
2022-10-26T15:16:26.700Z,17.20
2022-10-26T15:18:57.636Z,17.20
2022-10-26T15:21:46.490Z,17.20
2022-10-26T15:24:38.586Z,17.20
2022-10-26T15:27:15.078Z,17.10
2022-10-26T15:29:45.847Z,17.10
2022-10-26T15:32:27.478Z,17.10
2022-10-26T15:35:15.509Z,17.00
2022-10-26T15:37:42.422Z,17.00
2022-10-26T15:40:09.640Z,16.90
2022-10-26T15:42:38.590Z,16.90
2022-10-26T15:45:16.049Z,16.90
2022-10-26T15:47:43.256Z,16.90
2022-10-26T15:50:19.059Z,16.80
2022-10-26T15:52:49.024Z,16.70
2022-10-26T15:55:17.571Z,16.70
2022-10-26T15:57:44.807Z,16.70
2022-10-26T16:00:15.999Z,16.70
2022-10-26T16:02:45.143Z,16.70
2022-10-26T16:05:14.854Z,16.60
2022-10-26T16:07:43.273Z,16.50
2022-10-26T16:10:18.160Z,16.40
2022-10-26T16:12:45.001Z,16.40
2022-10-26T16:15:25.437Z,16.30
2022-10-26T16:17:52.756Z,16.30
2022-10-26T16:20:27.326Z,16.20
2022-10-26T16:22:54.915Z,16.20
2022-10-26T16:25:24.745Z,16.20
2022-10-26T16:27:53.352Z,16.20
2022-10-26T16:30:21.310Z,16.20
2022-10-26T16:32:48.581Z,16.10
2022-10-26T16:35:15.914Z,16.10
2022-10-26T16:37:42.741Z,16.10
2022-10-26T16:40:10.079Z,16.00
2022-10-26T16:42:36.921Z,16.00
2022-10-26T16:45:04.630Z,15.90
2022-10-26T16:47:35.616Z,15.90
2022-10-26T16:50:03.704Z,15.90
2022-10-26T16:52:30.584Z,15.80
2022-10-26T16:54:57.440Z,15.80
2022-10-26T16:57:24.244Z,15.80
2022-10-26T16:59:51.125Z,15.80
2022-10-26T17:02:18.129Z,15.80
2022-10-26T17:04:44.986Z,15.80
2022-10-26T17:07:11.827Z,15.80
2022-10-26T17:09:38.861Z,15.80
2022-10-26T17:12:06.111Z,15.80
2022-10-26T17:14:32.954Z,15.70
2022-10-26T17:17:00.026Z,15.70
2022-10-26T17:19:26.944Z,15.60
2022-10-26T17:21:53.735Z,15.60
2022-10-26T17:24:21.014Z,15.60
2022-10-26T17:26:47.797Z,15.60
2022-10-26T17:29:14.690Z,15.60
2022-10-26T17:31:41.853Z,15.60
2022-10-26T17:34:08.657Z,15.60
2022-10-26T17:36:35.529Z,15.50
2022-10-26T17:39:02.590Z,15.50
2022-10-26T17:41:30.116Z,15.60
2022-10-26T17:43:57.059Z,15.50
2022-10-26T17:46:26.273Z,15.50
2022-10-26T17:48:57.990Z,15.50
2022-10-26T17:51:26.054Z,15.40
2022-10-26T17:53:53.515Z,15.50
2022-10-26T17:56:25.560Z,15.50
2022-10-26T17:58:54.319Z,15.40
2022-10-26T18:01:21.462Z,15.40
2022-10-26T18:03:48.546Z,15.40
2022-10-26T18:06:17.248Z,15.40
2022-10-26T18:08:45.106Z,15.40
2022-10-26T18:11:14.983Z,15.40
2022-10-26T18:13:41.921Z,15.40
2022-10-26T18:16:13.234Z,15.30
2022-10-26T18:18:41.906Z,15.30
2022-10-26T18:21:11.622Z,15.20
2022-10-26T18:23:38.554Z,15.30
2022-10-26T18:26:11.269Z,15.20
2022-10-26T18:28:40.594Z,15.10
2022-10-26T18:31:10.293Z,15.10
2022-10-26T18:33:37.932Z,15.00
2022-10-26T18:36:07.906Z,14.90
2022-10-26T18:38:34.866Z,14.90
2022-10-26T18:41:02.008Z,14.90
2022-10-26T18:43:29.568Z,14.90
2022-10-26T18:46:24.179Z,14.80
2022-10-26T18:48:58.750Z,14.80
2022-10-26T18:51:30.596Z,14.80
2022-10-26T18:53:58.368Z,14.80
2022-10-26T18:56:25.669Z,14.80
2022-10-26T18:58:55.755Z,14.80
2022-10-26T19:01:24.942Z,14.80
2022-10-26T19:03:57.485Z,14.80
2022-10-26T19:06:35.085Z,14.80
2022-10-26T19:09:03.196Z,14.80
2022-10-26T19:11:30.982Z,14.70
2022-10-26T19:13:58.086Z,14.70
2022-10-26T19:16:44.032Z,14.60
2022-10-26T19:19:12.505Z,14.70
2022-10-26T19:21:39.414Z,14.70
2022-10-26T19:24:13.098Z,14.70
2022-10-26T19:26:43.447Z,14.70
2022-10-26T19:29:15.720Z,14.80
2022-10-26T19:31:44.543Z,14.60
2022-10-26T19:34:12.313Z,14.60
2022-10-26T19:36:39.753Z,14.60
2022-10-26T19:39:07.548Z,14.70
2022-10-26T19:41:34.364Z,14.60
2022-10-26T19:44:01.242Z,14.60
2022-10-26T19:46:29.791Z,14.60
2022-10-26T19:48:59.101Z,14.50
2022-10-26T19:51:27.591Z,14.40
2022-10-26T19:53:57.784Z,14.30
2022-10-26T19:56:27.506Z,14.20
2022-10-26T19:58:55.780Z,14.30
2022-10-26T20:01:22.811Z,14.20
2022-10-26T20:03:49.743Z,14.10
2022-10-26T20:06:18.247Z,14.10
2022-10-26T20:08:48.011Z,14.00
2022-10-26T20:11:16.810Z,13.90
2022-10-26T20:13:45.243Z,14.00
2022-10-26T20:16:13.165Z,13.80
2022-10-26T20:18:44.141Z,13.70
2022-10-26T20:21:16.714Z,13.60
2022-10-26T20:23:44.679Z,13.50
2022-10-26T20:26:18.335Z,13.50
2022-10-26T20:28:52.640Z,13.50
2022-10-26T20:31:19.906Z,13.40
2022-10-26T20:33:50.582Z,13.40
2022-10-26T20:36:17.331Z,13.40
2022-10-26T20:38:44.388Z,13.30
2022-10-26T20:41:14.885Z,13.10
2022-10-26T20:43:42.633Z,13.10
2022-10-26T20:46:25.205Z,13.00
2022-10-26T20:48:53.231Z,13.10
2022-10-26T20:51:35.792Z,13.10
2022-10-26T20:54:09.764Z,13.10
2022-10-26T20:56:41.605Z,13.00
2022-10-26T20:59:20.872Z,13.00
2022-10-26T21:01:47.725Z,12.90
2022-10-26T21:04:14.545Z,12.90
2022-10-26T21:06:41.298Z,12.80
2022-10-26T21:09:09.361Z,12.80
2022-10-26T21:11:36.343Z,12.70
2022-10-26T21:14:05.119Z,12.80
2022-10-26T21:16:32.155Z,12.90
2022-10-26T21:19:00.272Z,12.90
2022-10-26T21:21:27.168Z,12.90
2022-10-26T21:23:53.937Z,12.70
2022-10-26T21:26:20.741Z,12.60
2022-10-26T21:28:47.504Z,12.60
2022-10-26T21:31:16.786Z,12.50
2022-10-26T21:33:44.080Z,12.50
2022-10-26T21:36:12.392Z,12.40
2022-10-26T21:38:40.546Z,12.50
2022-10-26T21:41:08.828Z,12.40
2022-10-26T21:43:38.613Z,11.80
2022-10-26T21:46:06.249Z,12.40
2022-10-26T21:48:34.001Z,12.50
2022-10-26T21:51:05.977Z,12.50
2022-10-26T21:53:32.828Z,12.40
2022-10-26T21:56:21.145Z,12.40
2022-10-26T21:58:48.422Z,12.40
2022-10-26T22:01:16.706Z,12.30
2022-10-26T22:03:44.195Z,12.20
2022-10-26T22:06:14.971Z,12.10
2022-10-26T22:08:42.097Z,12.10
2022-10-26T22:11:15.737Z,12.00
2022-10-26T22:13:44.473Z,12.00
2022-10-26T22:16:15.052Z,12.00
2022-10-26T22:18:44.215Z,12.10
2022-10-26T22:21:12.593Z,12.00
2022-10-26T22:23:41.125Z,11.90
2022-10-26T22:26:20.128Z,11.90
2022-10-26T22:28:49.808Z,11.90
2022-10-26T22:31:19.455Z,11.90
2022-10-26T22:33:46.473Z,11.90
2022-10-26T22:36:15.517Z,11.80
2022-10-26T22:38:42.394Z,11.70
2022-10-26T22:41:10.457Z,11.60
2022-10-26T22:43:37.816Z,11.60
2022-10-26T22:46:04.636Z,11.50
2022-10-26T22:48:32.319Z,11.60
2022-10-26T22:50:59.439Z,11.60
2022-10-26T22:53:26.199Z,11.60
2022-10-26T22:55:52.993Z,11.50
2022-10-26T22:58:19.755Z,11.40
2022-10-26T23:00:46.553Z,11.40
2022-10-26T23:03:13.410Z,11.40
2022-10-26T23:05:48.035Z,11.40
2022-10-26T23:08:14.984Z,11.30
2022-10-26T23:10:41.764Z,11.30
2022-10-26T23:13:08.598Z,11.20
2022-10-26T23:15:35.454Z,11.20
2022-10-26T23:18:02.245Z,11.20
2022-10-26T23:20:31.248Z,11.20
2022-10-26T23:22:58.004Z,11.20
2022-10-26T23:25:24.770Z,11.20
2022-10-26T23:27:51.564Z,11.20
2022-10-26T23:30:18.442Z,11.20
2022-10-26T23:32:55.749Z,11.10
2022-10-26T23:35:23.253Z,11.10
2022-10-26T23:37:50.049Z,11.10
2022-10-26T23:40:16.858Z,11.10
2022-10-26T23:42:43.636Z,11.00
2022-10-26T23:45:10.706Z,11.00
2022-10-26T23:47:37.485Z,10.90
2022-10-26T23:50:04.638Z,10.90
2022-10-26T23:52:31.441Z,10.90
2022-10-26T23:54:58.242Z,10.90
2022-10-26T23:57:25.108Z,10.90
2022-10-26T23:59:51.993Z,10.90
